METAR Data
IDs: Format: Raw Decoded Include TAF

Data at: 0108 UTC 06 Dec 2019

METAR for:KIAD (Washington/Dulles In, VA, US)
Text:KIAD 060052Z 00000KT 10SM CLR 00/M06 A3012 RMK AO2 SLP201 T00001056
Temperature: 0.0°C ( 32°F)
Dewpoint: -5.6°C ( 22°F) [RH = 66%]
Pressure (altimeter):30.12 inches Hg (1020.1 mb) [Sea level pressure: 1020.1 mb]
Winds:calm
Visibility:10 or more sm (16+ km)
Ceiling:at least 12,000 feet AGL
Clouds:sky clear below 12,000 feet AGL